createdAt,value
2022-11-06T00:00:56.092Z,5.40
2022-11-06T00:03:23.212Z,5.40
2022-11-06T00:06:08.704Z,5.50
2022-11-06T00:08:38.172Z,5.50
2022-11-06T00:11:13.454Z,5.60
2022-11-06T00:13:40.849Z,5.60
2022-11-06T00:16:09.492Z,5.50
2022-11-06T00:18:37.341Z,5.50
2022-11-06T00:21:17.705Z,5.50
2022-11-06T00:23:46.503Z,5.50
2022-11-06T00:26:16.090Z,5.50
2022-11-06T00:28:43.506Z,5.60
2022-11-06T00:31:12.770Z,5.60
2022-11-06T00:33:40.168Z,5.60
2022-11-06T00:36:13.585Z,5.60
2022-11-06T00:38:40.345Z,5.70
2022-11-06T00:41:12.451Z,5.70
2022-11-06T00:43:39.242Z,5.80
2022-11-06T00:46:10.773Z,5.70
2022-11-06T00:48:38.353Z,5.70
2022-11-06T00:51:10.009Z,5.60
2022-11-06T00:53:37.069Z,5.50
2022-11-06T00:56:11.291Z,5.50
2022-11-06T00:58:38.700Z,5.30
2022-11-06T01:01:26.983Z,5.30
2022-11-06T01:04:02.518Z,5.30
2022-11-06T01:06:32.446Z,5.30
2022-11-06T01:08:59.967Z,5.30
2022-11-06T01:11:46.487Z,5.30
2022-11-06T01:14:19.192Z,5.20
2022-11-06T01:16:45.981Z,5.20
2022-11-06T01:19:14.019Z,5.20
2022-11-06T01:21:42.672Z,5.10
2022-11-06T01:24:21.998Z,5.20
2022-11-06T01:27:05.270Z,5.30
2022-11-06T01:29:35.913Z,5.30
2022-11-06T01:32:03.026Z,5.30
2022-11-06T01:34:29.800Z,5.30
2022-11-06T01:36:56.355Z,5.30
2022-11-06T01:39:23.026Z,5.30
2022-11-06T01:41:52.028Z,5.40
2022-11-06T01:44:33.680Z,5.30
2022-11-06T01:47:05.542Z,5.30
2022-11-06T01:49:37.405Z,5.30
2022-11-06T01:52:09.991Z,5.20
2022-11-06T01:54:39.845Z,5.20
2022-11-06T01:57:07.314Z,5.20
2022-11-06T01:59:37.266Z,5.10
2022-11-06T02:02:04.254Z,5.00
2022-11-06T02:04:44.389Z,5.10
2022-11-06T02:07:12.293Z,5.00
2022-11-06T02:09:39.184Z,5.00
2022-11-06T02:12:25.479Z,5.10
2022-11-06T02:15:13.664Z,5.10
2022-11-06T02:18:01.148Z,5.00
2022-11-06T02:20:43.698Z,5.00
2022-11-06T02:23:31.691Z,5.10
2022-11-06T02:26:21.541Z,5.20
2022-11-06T02:28:55.838Z,5.20
2022-11-06T02:31:30.249Z,5.20
2022-11-06T02:34:02.677Z,5.20
2022-11-06T02:36:37.830Z,5.30
2022-11-06T02:39:08.913Z,5.30
2022-11-06T02:41:40.318Z,5.40
2022-11-06T02:44:10.858Z,5.30
2022-11-06T02:46:46.001Z,5.30
2022-11-06T02:49:38.218Z,5.30
2022-11-06T02:52:29.204Z,5.20
2022-11-06T02:55:03.045Z,5.20
2022-11-06T02:57:35.581Z,5.10
2022-11-06T03:00:12.459Z,5.10
2022-11-06T03:02:58.109Z,5.00
2022-11-06T03:05:33.296Z,5.00
2022-11-06T03:08:23.973Z,5.00
2022-11-06T03:11:18.385Z,5.00
2022-11-06T03:13:57.078Z,4.90
2022-11-06T03:16:39.590Z,4.80
2022-11-06T03:19:29.968Z,4.70
2022-11-06T03:22:16.775Z,4.70
2022-11-06T03:24:55.374Z,4.70
2022-11-06T03:27:41.828Z,4.60
2022-11-06T03:30:15.335Z,4.60
2022-11-06T03:33:15.244Z,4.50
2022-11-06T03:35:48.525Z,4.60
2022-11-06T03:38:23.662Z,4.60
2022-11-06T03:40:55.265Z,4.50
2022-11-06T03:43:26.461Z,4.40
2022-11-06T03:45:53.737Z,4.50
2022-11-06T03:48:30.428Z,4.50
2022-11-06T03:51:04.766Z,4.40
2022-11-06T03:53:40.080Z,4.30
2022-11-06T03:56:12.066Z,4.30
2022-11-06T03:58:42.446Z,4.30
2022-11-06T04:01:12.117Z,4.30
2022-11-06T04:03:49.210Z,4.40
2022-11-06T04:06:33.744Z,4.40
2022-11-06T04:09:22.651Z,4.40
2022-11-06T04:12:08.611Z,4.30
2022-11-06T04:14:38.152Z,4.30
2022-11-06T04:17:10.211Z,4.10
2022-11-06T04:19:37.012Z,4.10
2022-11-06T04:22:17.741Z,4.10
2022-11-06T04:25:38.301Z,4.20
2022-11-06T04:28:38.924Z,4.20
2022-11-06T04:31:11.353Z,4.30
2022-11-06T04:34:04.526Z,4.30
2022-11-06T04:36:43.900Z,4.20
2022-11-06T04:39:25.738Z,4.20
2022-11-06T04:41:58.711Z,4.10
2022-11-06T04:44:47.625Z,4.10
2022-11-06T04:47:18.169Z,4.00
2022-11-06T04:49:45.781Z,4.10
2022-11-06T04:52:18.036Z,4.10
2022-11-06T04:54:46.656Z,4.20
2022-11-06T04:57:13.961Z,4.20
2022-11-06T04:59:40.579Z,4.30
2022-11-06T05:02:07.354Z,4.30
2022-11-06T05:04:34.117Z,4.40
2022-11-06T05:07:00.974Z,4.40
2022-11-06T05:09:27.576Z,4.30
2022-11-06T05:11:54.257Z,4.20
2022-11-06T05:14:20.903Z,4.10
2022-11-06T05:16:47.459Z,4.20
2022-11-06T05:19:14.076Z,4.10
2022-11-06T05:21:59.335Z,4.00
2022-11-06T05:24:25.960Z,3.90
2022-11-06T05:26:58.949Z,3.90
2022-11-06T05:29:26.433Z,3.90
2022-11-06T05:31:53.149Z,3.90
2022-11-06T05:34:19.928Z,3.90
2022-11-06T05:36:46.546Z,3.90
2022-11-06T05:39:13.113Z,3.90
2022-11-06T05:41:39.750Z,3.90
2022-11-06T05:44:06.613Z,3.90
2022-11-06T05:46:48.064Z,3.90
2022-11-06T05:49:15.652Z,4.00
2022-11-06T05:51:42.371Z,4.00
2022-11-06T05:54:08.964Z,4.00
2022-11-06T05:56:35.528Z,4.00
2022-11-06T05:59:02.110Z,4.10
2022-11-06T06:01:28.698Z,4.00
2022-11-06T06:03:55.390Z,4.00
2022-11-06T06:06:22.127Z,3.90
2022-11-06T06:08:48.734Z,3.80
2022-11-06T06:11:15.373Z,3.90
2022-11-06T06:13:41.992Z,3.80
2022-11-06T06:16:08.579Z,3.90
2022-11-06T06:18:35.164Z,3.90
2022-11-06T06:21:01.838Z,3.90
2022-11-06T06:23:28.411Z,3.90
2022-11-06T06:25:56.885Z,3.90
2022-11-06T06:28:23.497Z,3.90
2022-11-06T06:30:50.079Z,3.90
2022-11-06T06:33:16.681Z,3.90
2022-11-06T06:35:43.239Z,4.00
2022-11-06T06:38:09.927Z,3.90
2022-11-06T06:40:36.630Z,3.80
2022-11-06T06:43:03.420Z,3.90
2022-11-06T06:45:30.104Z,3.90
2022-11-06T06:48:02.511Z,4.00
2022-11-06T06:50:29.090Z,4.10
2022-11-06T06:52:59.567Z,4.10
2022-11-06T06:55:26.565Z,4.20
2022-11-06T06:57:57.984Z,4.30
2022-11-06T07:00:24.979Z,4.30
2022-11-06T07:02:52.106Z,4.30
2022-11-06T07:05:19.070Z,4.40
2022-11-06T07:07:46.005Z,4.30
2022-11-06T07:10:12.914Z,4.40
2022-11-06T07:12:39.504Z,4.40
2022-11-06T07:15:06.887Z,4.40
2022-11-06T07:17:33.478Z,4.40
2022-11-06T07:20:00.042Z,4.40
2022-11-06T07:22:33.805Z,4.40
2022-11-06T07:25:04.136Z,4.40
2022-11-06T07:27:30.800Z,4.50
2022-11-06T07:29:57.400Z,4.60
2022-11-06T07:32:23.951Z,4.60
2022-11-06T07:34:50.520Z,4.70
2022-11-06T07:37:17.117Z,4.70
2022-11-06T07:39:43.772Z,4.60
2022-11-06T07:42:10.379Z,4.60
2022-11-06T07:44:37.015Z,4.60
2022-11-06T07:47:03.676Z,4.70
2022-11-06T07:49:30.272Z,4.70
2022-11-06T07:51:56.908Z,4.70
2022-11-06T07:54:23.538Z,4.70
2022-11-06T07:56:50.100Z,4.70
2022-11-06T07:59:16.764Z,4.70
2022-11-06T08:01:43.483Z,4.70
2022-11-06T08:04:10.852Z,4.70
2022-11-06T08:06:37.418Z,4.70
2022-11-06T08:09:08.407Z,4.70
2022-11-06T08:11:35.052Z,4.70
2022-11-06T08:14:02.360Z,4.90
2022-11-06T08:16:29.374Z,5.00
2022-11-06T08:18:56.105Z,5.10
2022-11-06T08:21:22.814Z,5.00
2022-11-06T08:23:49.480Z,5.00
2022-11-06T08:26:16.340Z,5.10
2022-11-06T08:28:43.194Z,5.10
2022-11-06T08:31:10.324Z,5.10
2022-11-06T08:33:37.974Z,5.00
2022-11-06T08:36:06.377Z,5.10
2022-11-06T08:38:33.177Z,5.00
2022-11-06T08:41:04.935Z,5.10
2022-11-06T08:43:31.736Z,5.10
2022-11-06T08:45:59.628Z,5.20
2022-11-06T08:48:27.471Z,5.30
2022-11-06T08:50:54.107Z,5.40
2022-11-06T08:53:20.834Z,5.50
2022-11-06T08:55:47.522Z,5.60
2022-11-06T08:58:14.391Z,5.60
2022-11-06T09:00:41.283Z,5.70
2022-11-06T09:03:11.691Z,5.60
2022-11-06T09:05:42.797Z,5.70
2022-11-06T09:08:10.770Z,5.70
2022-11-06T09:10:38.802Z,5.80
2022-11-06T09:13:05.535Z,5.80
2022-11-06T09:15:32.258Z,5.90
2022-11-06T09:17:58.866Z,5.90
2022-11-06T09:20:26.272Z,5.90
2022-11-06T09:22:53.132Z,5.90
2022-11-06T09:25:20.210Z,6.00
2022-11-06T09:27:55.670Z,6.10
2022-11-06T09:30:27.358Z,6.20
2022-11-06T09:32:56.537Z,6.30
2022-11-06T09:35:25.281Z,6.30
2022-11-06T09:37:52.061Z,6.30
2022-11-06T09:40:28.279Z,6.40
2022-11-06T09:43:58.201Z,6.30
2022-11-06T09:46:22.473Z,6.40
2022-11-06T09:49:25.345Z,6.50
2022-11-06T09:52:13.980Z,6.50
2022-11-06T09:54:53.377Z,6.60
2022-11-06T09:57:35.349Z,6.60
2022-11-06T10:00:05.036Z,6.70
2022-11-06T10:02:46.892Z,6.70
2022-11-06T10:05:26.371Z,6.70
2022-11-06T10:07:57.049Z,6.70
2022-11-06T10:11:21.099Z,6.70
2022-11-06T10:14:13.338Z,6.80
2022-11-06T10:16:49.841Z,6.90
2022-11-06T10:19:39.407Z,6.90
2022-11-06T10:22:22.255Z,7.00
2022-11-06T10:25:21.939Z,7.10
2022-11-06T10:28:00.526Z,7.20
2022-11-06T10:30:40.093Z,7.20
2022-11-06T10:33:25.703Z,7.30
2022-11-06T10:35:55.102Z,7.40
2022-11-06T10:38:27.069Z,7.40
2022-11-06T10:40:55.197Z,7.50
2022-11-06T10:43:33.338Z,7.50
2022-11-06T10:46:22.248Z,7.50
2022-11-06T10:49:00.742Z,7.50
2022-11-06T10:51:40.981Z,7.60
2022-11-06T10:54:27.238Z,7.70
2022-11-06T10:57:09.200Z,7.70
2022-11-06T10:59:35.940Z,7.80
2022-11-06T11:02:03.552Z,7.80
2022-11-06T11:04:32.401Z,7.80
2022-11-06T11:07:18.806Z,7.90
2022-11-06T11:09:50.568Z,7.90
2022-11-06T11:12:28.460Z,8.00
2022-11-06T11:15:09.361Z,8.00
2022-11-06T11:17:36.141Z,8.10
2022-11-06T11:20:02.970Z,8.20
2022-11-06T11:22:33.169Z,8.20
2022-11-06T11:25:05.655Z,8.30
2022-11-06T11:27:37.374Z,8.40
2022-11-06T11:30:20.900Z,8.40
2022-11-06T11:32:47.664Z,8.50
2022-11-06T11:35:23.873Z,8.50
2022-11-06T11:37:50.487Z,8.60
2022-11-06T11:40:37.249Z,8.70
2022-11-06T11:43:24.878Z,8.70
2022-11-06T11:46:09.865Z,8.80
2022-11-06T11:48:47.506Z,8.90
2022-11-06T11:51:23.010Z,9.00
2022-11-06T11:53:50.514Z,9.00
2022-11-06T11:56:36.465Z,9.10
2022-11-06T11:59:06.905Z,9.20
2022-11-06T12:01:36.811Z,9.20
2022-11-06T12:04:28.352Z,9.30
2022-11-06T12:07:02.204Z,9.40
2022-11-06T12:09:32.796Z,9.40
2022-11-06T12:12:01.222Z,9.50
2022-11-06T12:14:37.256Z,9.50
2022-11-06T12:17:13.277Z,9.50
2022-11-06T12:19:42.106Z,9.60
2022-11-06T12:22:21.711Z,9.70
2022-11-06T12:25:03.398Z,9.70
2022-11-06T12:27:36.964Z,9.70
2022-11-06T12:30:12.399Z,9.70
2022-11-06T12:32:44.869Z,9.80
2022-11-06T12:35:27.869Z,9.80
2022-11-06T12:38:19.440Z,9.80
2022-11-06T12:40:53.893Z,9.80
2022-11-06T12:43:41.362Z,9.80
2022-11-06T12:46:34.383Z,9.80
2022-11-06T12:49:19.562Z,9.70
2022-11-06T12:51:48.893Z,9.80
2022-11-06T12:54:34.373Z,9.80
2022-11-06T12:57:43.866Z,9.80
2022-11-06T13:00:20.568Z,9.80
2022-11-06T13:03:24.159Z,9.80
2022-11-06T13:06:10.493Z,9.80
2022-11-06T13:08:42.746Z,9.90
2022-11-06T13:11:33.556Z,10.00
2022-11-06T13:14:09.415Z,10.00
2022-11-06T13:16:53.785Z,10.00
2022-11-06T13:19:33.126Z,10.10
2022-11-06T13:22:49.184Z,10.10
2022-11-06T13:26:00.806Z,10.10
2022-11-06T13:28:49.743Z,10.10
2022-11-06T13:31:20.118Z,10.10
2022-11-06T13:33:54.292Z,10.10
2022-11-06T13:36:21.374Z,10.10
2022-11-06T13:38:55.003Z,10.10
2022-11-06T13:41:27.369Z,10.10
2022-11-06T13:44:11.078Z,10.10
2022-11-06T13:46:54.578Z,10.10
2022-11-06T13:49:46.669Z,10.10
2022-11-06T13:52:42.087Z,10.10
2022-11-06T13:55:30.085Z,10.10
2022-11-06T13:58:14.536Z,10.50
2022-11-06T14:01:03.616Z,10.40
2022-11-06T14:03:43.575Z,10.30
2022-11-06T14:06:25.105Z,10.20
2022-11-06T14:08:56.523Z,10.20
2022-11-06T14:11:29.972Z,10.20
2022-11-06T14:14:19.433Z,10.10
2022-11-06T14:17:06.158Z,10.10
2022-11-06T14:19:32.841Z,10.10
2022-11-06T14:22:08.658Z,10.10
2022-11-06T14:24:36.550Z,10.10
2022-11-06T14:27:30.320Z,10.20
2022-11-06T14:29:59.837Z,10.20
2022-11-06T14:32:35.953Z,10.30
2022-11-06T14:35:31.138Z,10.30
2022-11-06T14:38:10.022Z,10.20
2022-11-06T14:40:38.575Z,10.20
2022-11-06T14:43:17.773Z,10.20
2022-11-06T14:46:07.839Z,10.10
2022-11-06T14:48:39.419Z,10.10
2022-11-06T14:51:10.004Z,10.10
2022-11-06T14:53:51.176Z,10.00
2022-11-06T14:56:31.605Z,10.00
2022-11-06T14:59:08.809Z,10.00
2022-11-06T15:01:37.663Z,10.00
2022-11-06T15:04:19.378Z,10.00
2022-11-06T15:06:50.009Z,9.90
2022-11-06T15:09:26.255Z,9.90
2022-11-06T15:12:04.300Z,9.90
2022-11-06T15:14:30.889Z,9.90
2022-11-06T15:17:10.286Z,9.90
2022-11-06T15:19:45.058Z,10.00
2022-11-06T15:22:56.715Z,10.00
2022-11-06T15:25:27.718Z,10.00
2022-11-06T15:28:14.633Z,10.00
2022-11-06T15:30:50.026Z,10.00
2022-11-06T15:33:24.880Z,10.00
2022-11-06T15:35:51.705Z,10.00
2022-11-06T15:38:22.377Z,9.90
2022-11-06T15:40:53.576Z,9.90
2022-11-06T15:43:25.802Z,9.90
2022-11-06T15:46:21.593Z,9.90
2022-11-06T15:49:05.120Z,9.90
2022-11-06T15:51:31.739Z,9.90
2022-11-06T15:53:58.337Z,9.90
2022-11-06T15:56:31.104Z,9.80
2022-11-06T15:59:13.065Z,9.80
2022-11-06T16:01:40.908Z,9.80
2022-11-06T16:04:20.597Z,9.80
2022-11-06T16:06:48.028Z,9.80
2022-11-06T16:09:24.999Z,9.70
2022-11-06T16:11:52.901Z,9.70
2022-11-06T16:14:20.631Z,9.70
2022-11-06T16:16:56.068Z,9.70
2022-11-06T16:19:31.621Z,9.70
2022-11-06T16:22:07.412Z,9.70
2022-11-06T16:24:43.020Z,9.60
2022-11-06T16:27:11.305Z,9.60
2022-11-06T16:29:39.095Z,9.60
2022-11-06T16:32:16.624Z,9.60
2022-11-06T16:34:45.962Z,9.60
2022-11-06T16:37:37.590Z,9.60
2022-11-06T16:40:06.312Z,9.60
2022-11-06T16:42:38.648Z,9.60
2022-11-06T16:45:15.038Z,9.60
2022-11-06T16:47:41.628Z,9.60
2022-11-06T16:50:47.759Z,9.60
2022-11-06T16:53:23.336Z,9.60
2022-11-06T16:56:10.312Z,9.60
2022-11-06T16:58:51.594Z,9.50
2022-11-06T17:01:20.730Z,9.50
2022-11-06T17:03:54.972Z,9.50
2022-11-06T17:06:25.550Z,9.50
2022-11-06T17:09:33.257Z,9.50
2022-11-06T17:12:01.081Z,9.40
2022-11-06T17:14:28.446Z,9.40
2022-11-06T17:16:58.094Z,9.40
2022-11-06T17:19:25.756Z,9.40
2022-11-06T17:21:52.764Z,9.50
2022-11-06T17:27:06.634Z,9.40
2022-11-06T17:29:35.999Z,9.40
2022-11-06T17:32:03.259Z,9.30
2022-11-06T17:34:29.869Z,9.30
2022-11-06T17:36:56.565Z,9.20
2022-11-06T17:39:23.129Z,9.30
2022-11-06T17:41:49.774Z,9.20
2022-11-06T17:44:17.408Z,9.20
2022-11-06T17:46:46.829Z,9.20
2022-11-06T17:49:18.030Z,9.20
2022-11-06T17:51:50.424Z,9.20
2022-11-06T17:54:18.948Z,9.20
2022-11-06T17:56:45.601Z,9.20
2022-11-06T17:59:13.823Z,9.30
2022-11-06T18:01:41.719Z,9.30
2022-11-06T18:04:09.192Z,9.30
2022-11-06T18:06:36.044Z,9.20
2022-11-06T18:09:05.600Z,9.20
2022-11-06T18:11:32.505Z,9.20
2022-11-06T18:13:59.120Z,9.30
2022-11-06T18:16:28.483Z,9.20
2022-11-06T18:18:55.943Z,9.30
2022-11-06T18:21:22.987Z,9.20
2022-11-06T18:23:49.977Z,9.30
2022-11-06T18:26:17.243Z,9.20
2022-11-06T18:28:45.184Z,9.30
2022-11-06T18:31:11.811Z,9.30
2022-11-06T18:33:38.503Z,9.30
2022-11-06T18:36:10.280Z,9.30
2022-11-06T18:38:39.066Z,9.30
2022-11-06T18:41:13.931Z,9.30
2022-11-06T18:43:41.154Z,9.30
2022-11-06T18:46:10.068Z,9.30
2022-11-06T18:48:37.864Z,9.30
2022-11-06T18:51:32.383Z,9.30
2022-11-06T18:54:04.357Z,9.30
2022-11-06T18:56:31.053Z,9.30
2022-11-06T18:58:57.765Z,9.30
2022-11-06T19:01:25.688Z,9.30
2022-11-06T19:03:52.372Z,9.30
2022-11-06T19:06:20.823Z,9.30
2022-11-06T19:08:48.773Z,9.20
2022-11-06T19:11:16.871Z,9.30
2022-11-06T19:13:47.874Z,9.20
2022-11-06T19:16:19.446Z,9.10
2022-11-06T19:21:31.646Z,9.00
2022-11-06T19:24:05.726Z,9.00
2022-11-06T19:26:35.146Z,9.00
2022-11-06T19:29:01.994Z,9.00
2022-11-06T19:31:30.086Z,9.00
2022-11-06T19:33:58.213Z,9.10
2022-11-06T19:36:25.230Z,9.00
2022-11-06T19:38:52.370Z,9.10
2022-11-06T19:41:19.695Z,9.20
2022-11-06T19:43:46.473Z,9.20
2022-11-06T19:46:13.063Z,9.20
2022-11-06T19:48:40.947Z,9.30
2022-11-06T19:51:12.066Z,9.30
2022-11-06T19:53:39.169Z,9.30
2022-11-06T19:56:12.293Z,9.30
2022-11-06T19:58:39.049Z,9.30
2022-11-06T20:01:10.571Z,9.30
2022-11-06T20:03:37.418Z,9.30
2022-11-06T20:06:07.774Z,9.30
2022-11-06T20:08:36.676Z,9.30
2022-11-06T20:11:05.223Z,9.30
2022-11-06T20:13:36.215Z,9.20
2022-11-06T20:16:04.358Z,9.20
2022-11-06T20:18:31.308Z,9.20
2022-11-06T20:21:01.708Z,9.20
2022-11-06T20:23:29.187Z,9.20
2022-11-06T20:25:56.511Z,9.20
2022-11-06T20:28:23.394Z,9.20
2022-11-06T20:30:50.619Z,9.20
2022-11-06T20:33:17.620Z,9.30
2022-11-06T20:35:45.323Z,9.20
2022-11-06T20:38:14.273Z,9.20
2022-11-06T20:40:41.984Z,9.20
2022-11-06T20:43:09.116Z,9.20
2022-11-06T20:45:37.187Z,9.30
2022-11-06T20:48:05.375Z,9.30
2022-11-06T20:50:32.794Z,9.30
2022-11-06T20:52:59.823Z,9.30
2022-11-06T20:55:26.628Z,9.40
2022-11-06T20:57:53.365Z,9.50
2022-11-06T21:00:20.049Z,9.50
2022-11-06T21:02:46.989Z,9.40
2022-11-06T21:05:14.796Z,9.40
2022-11-06T21:07:41.573Z,9.50
2022-11-06T21:10:09.875Z,9.50
2022-11-06T21:12:36.525Z,9.50
2022-11-06T21:15:03.271Z,9.60
2022-11-06T21:17:29.840Z,9.60
2022-11-06T21:19:56.501Z,9.60
2022-11-06T21:22:23.192Z,9.60
2022-11-06T21:24:49.758Z,9.70
2022-11-06T21:27:16.434Z,9.70
2022-11-06T21:29:43.028Z,9.70
2022-11-06T21:32:09.584Z,9.60
2022-11-06T21:34:36.263Z,9.70
2022-11-06T21:37:03.249Z,9.70
2022-11-06T21:39:34.719Z,9.60
2022-11-06T21:42:03.360Z,9.60
2022-11-06T21:44:29.965Z,9.60
2022-11-06T21:46:56.579Z,9.60
2022-11-06T21:49:24.374Z,9.70
2022-11-06T21:51:50.981Z,9.70
2022-11-06T21:54:36.457Z,9.60
2022-11-06T21:57:03.057Z,9.50
2022-11-06T21:59:29.920Z,9.40
2022-11-06T22:01:57.071Z,9.40
2022-11-06T22:04:23.929Z,9.30
2022-11-06T22:06:52.198Z,9.30
2022-11-06T22:09:24.525Z,9.30
2022-11-06T22:11:52.344Z,9.30
2022-11-06T22:14:18.933Z,9.30
2022-11-06T22:16:47.203Z,9.30
2022-11-06T22:19:15.293Z,9.30
2022-11-06T22:21:42.256Z,9.30
2022-11-06T22:24:11.326Z,9.40
2022-11-06T22:26:37.949Z,9.40
2022-11-06T22:29:09.160Z,9.40
2022-11-06T22:31:35.842Z,9.30
2022-11-06T22:34:03.670Z,9.30
2022-11-06T22:36:30.477Z,9.30
2022-11-06T22:38:58.828Z,9.30
2022-11-06T22:41:25.794Z,9.20
2022-11-06T22:43:57.194Z,9.20
2022-11-06T22:46:23.994Z,9.20
2022-11-06T22:48:51.662Z,9.10
2022-11-06T22:51:21.155Z,9.20
2022-11-06T22:53:47.844Z,9.20
2022-11-06T22:56:14.557Z,9.20
2022-11-06T22:58:43.033Z,9.20
2022-11-06T23:01:11.283Z,9.30
2022-11-06T23:03:39.623Z,9.30
2022-11-06T23:06:09.194Z,9.30
2022-11-06T23:08:40.634Z,9.30
2022-11-06T23:11:12.527Z,9.30
2022-11-06T23:13:40.138Z,9.30
2022-11-06T23:16:09.994Z,9.30
2022-11-06T23:18:36.991Z,9.30
2022-11-06T23:21:15.242Z,9.40
2022-11-06T23:23:42.829Z,9.30
2022-11-06T23:26:15.215Z,9.30
2022-11-06T23:28:42.279Z,9.20
2022-11-06T23:31:10.946Z,9.30
2022-11-06T23:33:37.962Z,9.30
2022-11-06T23:36:09.158Z,9.30
2022-11-06T23:38:36.036Z,9.30
2022-11-06T23:41:28.812Z,9.20
2022-11-06T23:43:56.734Z,9.10
2022-11-06T23:46:30.470Z,9.20
2022-11-06T23:48:57.162Z,9.20
2022-11-06T23:51:24.700Z,9.10
2022-11-06T23:53:51.850Z,9.10
2022-11-06T23:56:18.731Z,9.10
2022-11-06T23:58:45.448Z,9.10
